Time;durP1;ratioP1;P1;durP2;ratioP2;P2;SDS_P1;SDS_P2;PMS_P1;PMS_P2;Temp;Humidity;BMP_temperature;BMP_pressure;BME280_temperature;BME280_humidity;BME280_pressure;Samples;Min_cycle;Max_cycle;Signal;HPM_P1;HPM_P2
2022/07/29 00:01:43;;;;;;;5.15;4.95;;;;;;;18.36;59.55;101332.84;5997495;23;20518;-70
2022/07/29 00:04:10;;;;;;;5.63;5.32;;;;;;;18.46;59.84;101339.16;6032434;23;20078;-70
2022/07/29 00:06:37;;;;;;;6.55;6.25;;;;;;;18.30;59.96;101310.22;5972231;23;20523;-70
2022/07/29 00:09:03;;;;;;;5.30;5.10;;;;;;;18.47;59.77;101338.22;6030082;23;20096;-71
2022/07/29 00:11:30;;;;;;;6.88;6.57;;;;;;;18.32;60.42;101316.28;5995203;23;20049;-70
2022/07/29 00:13:56;;;;;;;5.60;5.30;;;;;;;18.46;59.88;101329.41;6026107;23;20031;-70
2022/07/29 00:16:23;;;;;;;5.63;5.38;;;;;;;18.22;60.36;101297.53;5972404;23;20149;-70
2022/07/29 00:18:49;;;;;;;5.20;5.00;;;;;;;18.43;60.39;101326.94;6025480;23;20023;-70
2022/07/29 00:21:16;;;;;;;5.03;4.82;;;;;;;18.20;61.43;101293.28;6002795;23;20023;-70
2022/07/29 00:23:42;;;;;;;5.50;5.20;;;;;;;18.32;61.70;101324.25;6023128;23;20522;-72
2022/07/29 00:26:08;;;;;;;5.00;4.80;;;;;;;18.29;61.82;101314.69;5998139;23;20031;-71
2022/07/29 00:28:35;;;;;;;6.53;6.22;;;;;;;18.22;61.10;101302.84;6026058;23;20050;-72
2022/07/29 00:31:01;;;;;;;5.05;4.85;;;;;;;18.34;60.83;101317.88;5990160;23;20015;-71
2022/07/29 00:33:28;;;;;;;6.30;6.00;;;;;;;18.32;61.22;101306.50;6025374;23;20101;-71
2022/07/29 00:35:55;;;;;;;5.28;5.07;;;;;;;18.27;61.44;101298.03;5997448;23;20039;-71
2022/07/29 00:38:22;;;;;;;5.57;5.28;;;;;;;18.34;61.70;101304.59;6022701;23;20313;-73
2022/07/29 00:40:51;;;;;;;5.20;5.00;;;;;;;18.33;61.89;101296.72;6004209;23;20043;-73
2022/07/29 00:43:17;;;;;;;5.20;5.00;;;;;;;18.17;61.71;101278.44;6032166;23;20492;-73
2022/07/29 00:45:44;;;;;;;5.70;5.40;;;;;;;18.16;61.31;101266.09;5992729;23;20030;-73
2022/07/29 00:48:11;;;;;;;5.53;5.28;;;;;;;18.20;61.23;101266.72;6032708;23;20083;-73
2022/07/29 00:50:38;;;;;;;6.50;6.20;;;;;;;18.23;61.10;101264.69;5993635;23;20496;-72
2022/07/29 00:53:06;;;;;;;5.30;5.00;;;;;;;18.38;60.58;101277.75;6031102;23;20097;-71
2022/07/29 00:55:33;;;;;;;6.65;6.35;;;;;;;18.26;60.65;101272.44;5995188;23;20465;-71
2022/07/29 00:57:59;;;;;;;5.50;5.30;;;;;;;18.33;60.88;101272.81;6021625;23;20019;-71
2022/07/29 01:00:28;;;;;;;6.97;6.60;;;;;;;18.34;61.12;101264.72;5998498;23;20019;-71
2022/07/29 01:02:55;;;;;;;5.00;4.80;;;;;;;18.31;61.62;101262.28;6024618;23;20089;-73
2022/07/29 01:05:25;;;;;;;5.80;5.50;;;;;;;18.22;62.35;101259.47;5999649;23;20039;-72
2022/07/29 01:08:13;;;;;;;5.40;5.20;;;;;;;18.19;62.66;101259.72;6022242;23;20019;-73
2022/07/29 01:10:41;;;;;;;6.20;5.90;;;;;;;18.14;62.50;101255.59;5992012;23;20045;-71
2022/07/29 01:13:09;;;;;;;4.97;4.78;;;;;;;18.14;62.75;101252.94;5995035;23;20110;-71
2022/07/29 01:15:43;;;;;;;6.35;6.05;;;;;;;17.97;62.54;101218.00;6022896;23;20017;-71
2022/07/29 01:18:27;;;;;;;5.22;5.03;;;;;;;18.17;62.70;101248.38;5994644;23;20043;-71
2022/07/29 01:21:21;;;;;;;5.20;5.00;;;;;;;17.97;62.00;101218.00;5999404;23;20472;-71
2022/07/29 01:23:53;;;;;;;5.07;4.88;;;;;;;17.97;62.14;101224.13;6020837;23;20045;-71
2022/07/29 01:27:04;;;;;;;5.53;5.22;;;;;;;18.11;61.88;101241.69;5995206;23;20552;-71
2022/07/29 01:29:41;;;;;;;7.05;6.75;;;;;;;18.11;61.84;101249.66;5991529;23;20061;-71
2022/07/29 01:32:18;;;;;;;5.30;5.10;;;;;;;17.82;61.92;101209.31;6004895;23;20085;-71
2022/07/29 01:35:01;;;;;;;5.20;4.97;;;;;;;18.06;62.08;101246.50;5995112;23;20028;-71
2022/07/29 01:37:46;;;;;;;6.95;6.65;;;;;;;18.04;62.18;101245.75;5970780;23;20015;-71
2022/07/29 01:40:46;;;;;;;5.28;5.07;;;;;;;18.04;62.04;101243.09;5998642;23;20030;-71
2022/07/29 01:43:16;;;;;;;5.10;4.90;;;;;;;17.88;62.46;101220.38;6014249;23;20042;-71
2022/07/29 01:46:14;;;;;;;5.50;5.20;;;;;;;18.07;62.75;101240.25;5991905;23;20152;-70
2022/07/29 01:48:53;;;;;;;5.50;5.30;;;;;;;18.04;62.99;101243.09;6008600;23;20050;-72
2022/07/29 01:52:03;;;;;;;5.20;5.00;;;;;;;17.98;64.12;101240.91;5995216;23;20751;-73
2022/07/29 01:54:42;;;;;;;6.30;6.00;;;;;;;17.85;64.47;101236.53;5987836;23;20033;-72
2022/07/29 01:57:17;;;;;;;4.88;4.68;;;;;;;17.81;66.24;101242.16;5994459;23;20050;-72
2022/07/29 01:59:46;;;;;;;5.60;5.30;;;;;;;17.76;66.07;101239.84;6017525;23;20033;-74
2022/07/29 02:02:14;;;;;;;5.30;5.10;;;;;;;17.74;66.09;101245.25;5983179;23;20105;-73
2022/07/29 02:04:45;;;;;;;5.20;5.00;;;;;;;17.61;65.86;101222.38;6024622;23;20097;-72
2022/07/29 02:07:15;;;;;;;5.40;5.20;;;;;;;17.50;66.14;101204.56;5993674;23;20029;-73
2022/07/29 02:09:43;;;;;;;5.30;5.10;;;;;;;17.73;65.55;101235.59;6023279;23;20003;-72
2022/07/29 02:12:11;;;;;;;5.18;4.97;;;;;;;17.72;65.61;101230.38;5982450;23;20023;-73
2022/07/29 02:14:43;;;;;;;6.70;6.40;;;;;;;17.60;65.82;101208.28;5988962;23;20019;-72
2022/07/29 02:17:12;;;;;;;5.20;5.00;;;;;;;17.49;65.47;101192.28;5992827;23;20030;-73
2022/07/29 02:19:40;;;;;;;6.53;6.22;;;;;;;17.73;65.67;101240.06;5990922;23;20011;-73
2022/07/29 02:22:09;;;;;;;5.20;5.00;;;;;;;17.51;66.69;101211.59;6021921;23;20460;-73
2022/07/29 02:24:39;;;;;;;6.45;6.15;;;;;;;17.48;66.73;101211.81;5990694;23;20019;-72
2022/07/29 02:27:08;;;;;;;5.00;4.80;;;;;;;17.46;67.31;101230.50;6021618;23;20027;-73
2022/07/29 02:29:36;;;;;;;6.40;6.10;;;;;;;17.63;66.75;101234.56;5970966;23;20272;-73
2022/07/29 02:32:05;;;;;;;5.10;4.90;;;;;;;17.47;66.65;101223.41;6022280;23;20031;-73
2022/07/29 02:34:33;;;;;;;6.45;6.15;;;;;;;17.62;66.72;101255.91;5990868;23;20025;-72
2022/07/29 02:36:59;;;;;;;5.10;4.90;;;;;;;17.62;66.44;101250.59;5998042;23;20575;-73
2022/07/29 02:39:29;;;;;;;5.43;5.22;;;;;;;17.64;66.02;101256.66;6003404;23;20015;-72
2022/07/29 02:42:01;;;;;;;5.22;5.03;;;;;;;17.45;65.98;101226.16;6000570;23;20027;-73
2022/07/29 02:44:28;;;;;;;6.13;5.82;;;;;;;17.59;65.40;101245.53;5968252;23;20457;-73
2022/07/29 02:47:21;;;;;;;5.30;5.10;;;;;;;17.61;64.89;101252.41;6020906;23;20080;-72
2022/07/29 02:50:08;;;;;;;5.30;5.10;;;;;;;17.62;65.31;101255.91;5997616;23;20082;-73
2022/07/29 02:52:39;;;;;;;6.45;6.15;;;;;;;17.65;65.20;101264.50;6018739;23;20034;-73
2022/07/29 02:55:09;;;;;;;4.97;4.78;;;;;;;17.67;64.99;101265.25;5992974;23;20034;-72
2022/07/29 02:57:42;;;;;;;6.60;6.30;;;;;;;17.67;65.89;101264.41;6024173;23;20066;-72
2022/07/29 03:00:24;;;;;;;5.10;4.90;;;;;;;17.62;67.37;101261.22;5988454;23;20437;-74
2022/07/29 03:02:54;;;;;;;5.18;4.97;;;;;;;17.55;69.14;101266.97;6025998;23;20175;-72
2022/07/29 03:05:22;;;;;;;5.20;5.00;;;;;;;17.44;73.01;101300.56;5993521;23;20456;-74
2022/07/29 03:07:58;;;;;;;5.10;4.90;;;;;;;17.07;75.95;101245.66;6024533;23;20037;-73
2022/07/29 03:10:28;;;;;;;6.03;5.75;;;;;;;17.15;79.22;101274.31;5993555;23;20019;-73
2022/07/29 03:12:55;;;;;;;6.22;5.93;;;;;;;16.90;82.18;101280.50;6016805;23;20089;-73
2022/07/29 03:15:22;;;;;;;5.47;5.25;;;;;;;16.59;83.06;101271.13;5996421;23;20019;-73
2022/07/29 03:17:51;;;;;;;5.43;5.20;;;;;;;16.45;85.52;101272.06;6026519;23;20014;-74
2022/07/29 03:20:18;;;;;;;5.10;4.90;;;;;;;16.34;88.08;101272.78;6001356;23;20184;-73
2022/07/29 03:22:48;;;;;;;5.70;5.50;;;;;;;15.92;90.99;101208.50;5994371;23;20037;-73
2022/07/29 03:25:17;;;;;;;5.20;5.00;;;;;;;16.08;92.79;101274.53;6028886;23;20370;-74
2022/07/29 03:27:44;;;;;;;6.47;5.70;;;;;;;15.92;93.17;101275.53;5995201;23;20011;-72
2022/07/29 03:30:12;;;;;;;5.10;4.90;;;;;;;15.46;91.82;101244.06;6026706;23;20026;-73
2022/07/29 03:32:48;;;;;;;5.38;5.10;;;;;;;15.49;91.77;101246.50;6000992;23;20533;-73
2022/07/29 03:35:19;;;;;;;5.20;5.00;;;;;;;15.48;92.28;101247.47;6027125;23;20014;-72
2022/07/29 03:37:45;;;;;;;5.35;5.15;;;;;;;15.54;94.15;101270.88;5976405;23;20315;-73
2022/07/29 03:40:17;;;;;;;5.20;5.00;;;;;;;15.47;94.10;101258.97;6029513;23;20288;-72
2022/07/29 03:42:45;;;;;;;5.20;5.00;;;;;;;15.10;94.76;101204.97;5995214;23;20019;-73
2022/07/29 03:45:15;;;;;;;5.03;4.82;;;;;;;15.43;96.23;101259.28;6030242;23;20021;-73
2022/07/29 03:47:48;;;;;;;6.35;6.05;;;;;;;14.31;92.45;101092.69;5993746;23;20017;-73
2022/07/29 03:50:19;;;;;;;5.20;4.97;;;;;;;15.21;89.94;101201.63;6025436;23;20014;-72
2022/07/29 03:52:46;;;;;;;4.97;4.78;;;;;;;15.46;90.23;101230.84;5974926;23;20414;-73
2022/07/29 03:55:14;;;;;;;4.97;4.78;;;;;;;15.20;91.46;101211.34;6003087;23;20086;-72
2022/07/29 03:57:42;;;;;;;5.75;5.50;;;;;;;15.45;91.44;101247.66;5995858;23;20032;-73
2022/07/29 04:00:09;;;;;;;5.35;5.15;;;;;;;15.29;91.63;101217.84;6028689;23;20030;-73
2022/07/29 04:02:37;;;;;;;6.57;6.28;;;;;;;15.37;92.45;101228.78;5995589;23;20460;-73
2022/07/29 04:05:04;;;;;;;4.90;4.70;;;;;;;15.29;91.79;101226.63;6001467;23;20027;-74
2022/07/29 04:07:30;;;;;;;6.20;5.90;;;;;;;15.28;92.65;101221.44;6022422;23;20017;-71
2022/07/29 04:09:57;;;;;;;4.90;4.70;;;;;;;15.39;94.88;101248.03;5997927;23;20035;-70
2022/07/29 04:12:24;;;;;;;5.80;5.55;;;;;;;15.36;96.32;101241.16;6021750;23;20030;-71
2022/07/29 04:14:51;;;;;;;5.00;4.80;;;;;;;15.25;96.62;101245.44;5993331;23;20570;-71
2022/07/29 04:17:17;;;;;;;5.00;4.80;;;;;;;15.40;97.69;101262.16;6029602;23;20819;-71
2022/07/29 04:19:43;;;;;;;4.95;4.75;;;;;;;15.20;98.47;101242.25;5994024;23;20484;-70
2022/07/29 04:22:10;;;;;;;5.18;4.90;;;;;;;15.19;98.01;101240.53;6029093;23;20035;-71
2022/07/29 04:24:36;;;;;;;6.20;5.90;;;;;;;15.18;98.09;101223.81;5999076;23;20015;-71
2022/07/29 04:27:03;;;;;;;4.97;4.78;;;;;;;15.30;98.87;101238.06;6023945;23;20205;-70
2022/07/29 04:29:29;;;;;;;6.72;6.43;;;;;;;15.29;97.73;101217.84;5994041;23;20011;-70
2022/07/29 04:31:55;;;;;;;5.00;4.80;;;;;;;15.26;96.45;101218.06;6029343;23;20101;-71
2022/07/29 04:34:22;;;;;;;5.22;5.03;;;;;;;14.28;96.33;101066.50;5992438;23;20035;-70
2022/07/29 04:36:53;;;;;;;5.60;5.32;;;;;;;15.20;95.85;101205.22;5981981;23;20113;-70
2022/07/29 04:39:20;;;;;;;5.63;5.32;;;;;;;14.40;95.98;101072.81;6007280;23;20015;-68
2022/07/29 04:41:49;;;;;;;5.10;4.90;;;;;;;15.01;95.90;101174.66;5996160;23;20022;-70
2022/07/29 04:44:18;;;;;;;5.00;4.70;;;;;;;15.46;96.72;101232.66;6028074;23;20473;-70
2022/07/29 04:46:45;;;;;;;5.15;4.95;;;;;;;15.50;97.56;101245.56;5995177;23;20085;-70
2022/07/29 04:49:11;;;;;;;4.80;4.60;;;;;;;15.51;99.14;101244.59;6026979;23;20042;-70
2022/07/29 04:51:38;;;;;;;6.20;5.90;;;;;;;15.50;98.80;101239.44;5994519;23;20273;-70
2022/07/29 04:54:05;;;;;;;5.38;5.07;;;;;;;15.60;97.69;101250.28;6022885;23;20027;-70
2022/07/29 04:56:32;;;;;;;6.55;6.25;;;;;;;15.47;97.95;101240.47;5996516;23;20033;-70
2022/07/29 04:58:58;;;;;;;4.85;4.65;;;;;;;15.52;98.16;101250.78;6022504;23;20644;-70
2022/07/29 05:01:25;;;;;;;6.10;5.80;;;;;;;15.57;97.72;101251.31;5998032;23;20083;-70
2022/07/29 05:03:51;;;;;;;5.13;4.88;;;;;;;15.60;97.67;101245.84;6025659;23;20202;-71
2022/07/29 05:06:25;;;;;;;5.80;5.53;;;;;;;15.65;97.53;101246.38;5992934;23;20015;-70
2022/07/29 05:08:51;;;;;;;5.32;5.10;;;;;;;15.62;96.99;101222.78;6027434;23;20515;-71
2022/07/29 05:11:18;;;;;;;5.43;5.15;;;;;;;15.61;97.18;101209.63;5994566;23;20027;-70
2022/07/29 05:13:47;;;;;;;5.20;5.00;;;;;;;15.68;95.74;101205.66;6022333;23;20476;-70
2022/07/29 05:16:14;;;;;;;5.03;4.82;;;;;;;15.91;94.65;101231.47;6006352;23;20094;-70
2022/07/29 05:18:41;;;;;;;5.30;5.10;;;;;;;15.91;94.78;101228.81;6022108;23;20097;-70
2022/07/29 05:21:08;;;;;;;4.82;4.63;;;;;;;15.62;91.90;101155.78;5995102;23;20027;-70
2022/07/29 05:23:34;;;;;;;6.30;6.00;;;;;;;15.72;91.46;101176.28;5972273;23;20011;-70
2022/07/29 05:26:01;;;;;;;5.30;5.10;;;;;;;16.00;91.89;101221.25;6024713;23;20019;-70
2022/07/29 05:28:27;;;;;;;5.95;5.68;;;;;;;16.02;91.06;101203.44;5998276;23;20207;-70
2022/07/29 05:30:54;;;;;;;5.13;4.88;;;;;;;14.64;89.88;100985.94;6024136;23;20026;-70
2022/07/29 05:33:20;;;;;;;5.15;4.95;;;;;;;16.08;89.52;101208.34;5998111;23;20460;-70
2022/07/29 05:36:06;;;;;;;4.80;4.60;;;;;;;16.08;90.11;101214.47;6025474;23;20076;-70
2022/07/29 05:38:35;;;;;;;6.55;6.25;;;;;;;16.15;88.96;101207.78;5993069;23;20035;-70
2022/07/29 05:41:02;;;;;;;4.95;4.75;;;;;;;16.14;87.28;101214.06;6002363;23;20163;-70
2022/07/29 05:43:28;;;;;;;6.22;5.93;;;;;;;16.08;88.81;101208.34;5993368;23;20070;-70
2022/07/29 05:45:55;;;;;;;5.60;5.20;;;;;;;16.11;87.21;101190.41;6023053;23;20249;-70
2022/07/29 05:48:22;;;;;;;5.03;4.82;;;;;;;16.34;86.18;101220.66;5996958;23;20007;-70
2022/07/29 05:50:49;;;;;;;4.85;4.65;;;;;;;16.64;85.86;101222.16;5998393;23;20038;-69
2022/07/29 05:53:16;;;;;;;5.10;4.90;;;;;;;16.92;83.81;101221.09;5998416;23;20025;-72
2022/07/29 05:55:46;;;;;;;5.57;5.00;;;;;;;16.92;83.17;101209.66;6000232;23;20204;-72
2022/07/29 05:58:13;;;;;;;5.22;5.03;;;;;;;17.15;82.52;101223.91;5994131;23;20198;-70
2022/07/29 06:00:39;;;;;;;6.40;6.10;;;;;;;17.17;81.46;101213.19;6001855;23;20498;-70
2022/07/29 06:03:06;;;;;;;5.20;5.00;;;;;;;17.23;80.09;101242.78;5970018;23;20031;-70
2022/07/29 06:05:32;;;;;;;7.13;6.82;;;;;;;16.92;79.44;101225.56;6000802;23;20011;-71
2022/07/29 06:07:59;;;;;;;5.15;4.95;;;;;;;17.07;80.50;101252.78;5997867;23;20379;-71
2022/07/29 06:10:26;;;;;;;5.97;5.63;;;;;;;17.14;80.35;101243.44;6021909;23;20082;-70
2022/07/29 06:12:53;;;;;;;5.60;5.30;;;;;;;17.21;80.00;101255.28;5991196;23;20267;-70
2022/07/29 06:15:20;;;;;;;7.20;6.90;;;;;;;16.17;80.88;101075.28;6014894;23;20031;-70
2022/07/29 06:17:47;;;;;;;5.20;5.00;;;;;;;17.31;81.00;101260.78;5989880;23;20027;-70
2022/07/29 06:20:30;;;;;;;6.32;6.03;;;;;;;17.35;81.58;101275.53;5993289;23;20061;-70
2022/07/29 06:22:57;;;;;;;5.45;5.10;;;;;;;17.32;81.73;101273.13;5990724;23;20015;-70
2022/07/29 06:25:24;;;;;;;6.05;5.78;;;;;;;17.33;83.18;101288.06;6023313;23;20046;-70
2022/07/29 06:27:52;;;;;;;5.57;5.28;;;;;;;17.27;83.43;101275.25;5998486;23;20011;-71
2022/07/29 06:30:18;;;;;;;5.22;5.03;;;;;;;17.26;85.20;101281.50;5996730;23;20090;-71
2022/07/29 06:32:45;;;;;;;5.93;5.63;;;;;;;17.12;86.58;101278.03;5993187;23;20029;-71
2022/07/29 06:35:11;;;;;;;5.20;5.00;;;;;;;17.09;87.71;101272.09;6018030;23;20135;-71
2022/07/29 06:37:57;;;;;;;5.32;5.13;;;;;;;17.05;87.23;101266.16;5984333;23;20007;-71
2022/07/29 06:43:10;;;;;;;5.20;5.00;;;;;;;17.13;87.91;101271.75;5985689;23;20015;-71
2022/07/29 06:45:40;;;;;;;6.95;6.65;;;;;;;17.01;87.75;101251.41;6016535;23;20108;-71
2022/07/29 06:48:07;;;;;;;5.35;5.07;;;;;;;17.06;88.15;101259.91;5991969;23;20078;-71
2022/07/29 06:50:34;;;;;;;6.47;6.18;;;;;;;17.03;90.33;101254.78;5992885;23;20592;-73
2022/07/29 06:53:01;;;;;;;5.40;5.20;;;;;;;16.14;90.19;101102.00;6028958;23;20038;-71
2022/07/29 06:55:27;;;;;;;6.40;6.10;;;;;;;17.14;90.53;101283.22;5964776;23;20083;-71
2022/07/29 06:57:53;;;;;;;5.50;5.20;;;;;;;17.12;91.82;101277.19;6023030;23;20659;-70
2022/07/29 07:00:20;;;;;;;6.05;5.78;;;;;;;16.92;91.20;101252.06;5996291;23;20086;-70
2022/07/29 07:02:46;;;;;;;5.50;5.25;;;;;;;17.02;92.84;101284.94;5993184;23;20035;-71
2022/07/29 07:05:13;;;;;;;5.50;5.20;;;;;;;16.98;93.76;101278.16;6026958;23;20259;-71
2022/07/29 07:07:39;;;;;;;6.35;6.00;;;;;;;16.80;97.15;101258.16;5985078;23;20019;-71
2022/07/29 07:10:06;;;;;;;5.68;5.38;;;;;;;16.73;100.00;101258.59;6024125;23;20022;-71
2022/07/29 07:12:33;;;;;;;6.90;6.45;;;;;;;16.79;100.00;101269.75;5996049;23;20087;-71
2022/07/29 07:14:59;;;;;;;5.18;4.97;;;;;;;16.76;100.00;101273.47;5993051;23;20027;-71
2022/07/29 07:17:26;;;;;;;6.55;6.25;;;;;;;16.57;100.00;101231.47;5998117;23;20032;-70
2022/07/29 07:19:52;;;;;;;5.40;5.10;;;;;;;16.86;100.00;101271.91;5993737;23;20030;-70
2022/07/29 07:22:19;;;;;;;5.30;5.10;;;;;;;16.67;100.00;101229.88;6017387;23;20111;-71
2022/07/29 07:24:45;;;;;;;5.00;4.80;;;;;;;16.70;100.00;101248.22;5993328;23;20181;-71
2022/07/29 07:27:12;;;;;;;5.10;4.90;;;;;;;15.94;100.00;101133.31;6021944;23;20034;-70
2022/07/29 07:29:40;;;;;;;6.80;6.50;;;;;;;16.38;100.00;101197.47;5966291;23;20461;-71
2022/07/29 07:32:09;;;;;;;5.32;5.13;;;;;;;16.19;100.00;101189.91;5973455;23;20021;-71
2022/07/29 07:34:37;;;;;;;6.50;6.20;;;;;;;15.74;100.00;101145.25;5989992;23;20112;-71
2022/07/29 07:37:04;;;;;;;5.10;4.90;;;;;;;16.22;100.00;101221.50;5994119;23;20090;-71
2022/07/29 07:39:30;;;;;;;7.03;6.72;;;;;;;16.02;100.00;101198.16;5991136;23;20029;-71
2022/07/29 07:41:57;;;;;;;5.07;4.88;;;;;;;16.24;100.00;101221.41;5996804;23;20019;-72
2022/07/29 07:44:23;;;;;;;5.50;5.25;;;;;;;16.28;100.00;101234.31;5996199;23;20036;-71
2022/07/29 07:46:49;;;;;;;5.20;5.00;;;;;;;16.45;100.00;101241.09;5968006;23;20038;-71
2022/07/29 07:49:16;;;;;;;5.28;5.07;;;;;;;16.19;100.00;101211.09;5996188;23;20015;-71
2022/07/29 07:51:42;;;;;;;5.38;5.18;;;;;;;16.55;100.00;101243.97;5995336;23;20508;-71
2022/07/29 07:54:16;;;;;;;5.50;5.20;;;;;;;16.43;100.00;101216.50;5990330;23;21383;-71
2022/07/29 07:56:43;;;;;;;5.57;5.28;;;;;;;16.66;100.00;101240.59;5995504;23;20064;-71
2022/07/29 07:59:09;;;;;;;5.50;5.30;;;;;;;16.77;100.00;101242.50;6018875;23;20094;-71
2022/07/29 08:01:37;;;;;;;7.18;6.88;;;;;;;16.82;100.00;101243.03;5989886;23;20046;-71
2022/07/29 08:04:21;;;;;;;5.30;5.10;;;;;;;16.73;100.00;101205.59;6029217;23;20408;-70
2022/07/29 08:06:54;;;;;;;5.35;5.15;;;;;;;16.89;100.00;101215.16;5992838;23;20069;-72
2022/07/29 08:09:21;;;;;;;5.10;4.90;;;;;;;17.02;100.00;101226.59;5994876;23;20019;-72
2022/07/29 08:11:56;;;;;;;5.35;5.15;;;;;;;17.11;100.00;101249.78;5994504;23;20495;-72
2022/07/29 08:14:23;;;;;;;5.60;5.35;;;;;;;16.80;100.00;101179.53;6004596;23;20019;-72
2022/07/29 08:16:50;;;;;;;6.10;5.80;;;;;;;17.18;100.00;101220.19;6040982;23;20011;-72
2022/07/29 08:19:17;;;;;;;5.82;5.53;;;;;;;17.21;100.00;101223.47;5987743;23;20441;-71
2022/07/29 08:21:43;;;;;;;5.95;5.65;;;;;;;17.01;100.00;101193.06;6019177;23;20343;-71
2022/07/29 08:26:55;;;;;;;5.25;5.05;;;;;;;17.10;100.00;101240.16;6020577;23;20035;-71
2022/07/29 08:29:21;;;;;;;5.22;4.97;;;;;;;16.88;100.00;101189.63;5995487;23;20273;-71
2022/07/29 08:31:48;;;;;;;5.40;5.10;;;;;;;17.18;100.00;101217.53;5992835;23;20210;-71
2022/07/29 08:34:14;;;;;;;5.28;5.07;;;;;;;17.19;100.00;101227.19;6021012;23;20452;-73
2022/07/29 08:36:41;;;;;;;5.85;5.60;;;;;;;17.19;100.00;101236.00;5973569;23;20290;-71
2022/07/29 08:39:07;;;;;;;5.50;5.20;;;;;;;17.15;100.00;101215.94;6021069;23;20273;-71
2022/07/29 08:41:35;;;;;;;6.75;6.45;;;;;;;17.18;100.00;101185.69;5967082;23;20050;-71
2022/07/29 08:44:01;;;;;;;5.53;5.22;;;;;;;17.43;100.00;101201.53;6023546;23;20026;-69
2022/07/29 08:46:28;;;;;;;6.63;6.32;;;;;;;17.69;100.00;101209.41;5987956;23;20012;-73
2022/07/29 08:48:55;;;;;;;6.00;5.60;;;;;;;17.71;100.00;101176.47;5994036;23;20027;-71
2022/07/29 08:51:24;;;;;;;5.20;5.00;;;;;;;17.88;100.00;101192.94;5993460;23;20359;-70
2022/07/29 08:53:50;;;;;;;6.10;5.80;;;;;;;17.93;100.00;101178.38;5999346;23;20022;-71
2022/07/29 08:56:19;;;;;;;5.30;5.05;;;;;;;17.96;100.00;101152.56;6021741;23;20105;-70
2022/07/29 08:58:47;;;;;;;5.50;5.30;;;;;;;18.39;100.00;101203.25;5988666;23;20083;-70
2022/07/29 09:01:23;;;;;;;5.23;5.03;;;;;;;18.12;100.00;101137.13;6010415;23;20019;-70
2022/07/29 09:04:11;;;;;;;5.70;5.35;;;;;;;18.60;100.00;101203.41;5964617;23;20304;-71
2022/07/29 09:06:42;;;;;;;7.35;6.95;;;;;;;18.79;99.29;101193.97;5989485;23;20073;-70
2022/07/29 09:09:09;;;;;;;6.03;5.78;;;;;;;18.93;96.25;101201.72;5985124;23;20172;-70
2022/07/29 09:11:36;;;;;;;6.35;6.05;;;;;;;18.91;94.69;101175.25;5988267;23;20075;-70
2022/07/29 09:14:02;;;;;;;5.70;5.43;;;;;;;19.09;96.30;101190.72;5966468;23;20033;-70
2022/07/29 09:16:49;;;;;;;6.93;6.53;;;;;;;18.12;96.90;101020.25;5976344;23;20700;-70
2022/07/29 09:19:31;;;;;;;5.50;5.30;;;;;;;19.04;98.21;101179.59;5987991;23;20487;-70
2022/07/29 09:21:59;;;;;;;5.65;5.30;;;;;;;18.97;99.73;101195.19;6003039;23;20024;-70
2022/07/29 09:24:34;;;;;;;6.32;6.03;;;;;;;18.81;100.00;101197.41;5989907;23;20023;-70
2022/07/29 09:27:01;;;;;;;5.70;5.40;;;;;;;18.71;100.00;101200.72;6017226;23;20027;-70
2022/07/29 09:29:28;;;;;;;7.43;7.10;;;;;;;18.39;100.00;101186.47;5961336;23;20043;-70
2022/07/29 09:32:07;;;;;;;5.80;5.50;;;;;;;18.27;100.00;101175.81;6019790;23;20332;-71
2022/07/29 09:34:33;;;;;;;6.75;6.45;;;;;;;18.50;100.00;101211.25;5964173;23;20114;-70
2022/07/29 09:37:00;;;;;;;5.97;5.68;;;;;;;18.57;100.00;101214.25;5972784;23;20512;-70
2022/07/29 09:39:30;;;;;;;6.72;6.40;;;;;;;18.63;100.00;101205.81;5975321;23;20026;-70
2022/07/29 09:41:59;;;;;;;5.72;5.45;;;;;;;18.80;100.00;101193.03;5990515;23;20774;-70
2022/07/29 09:44:26;;;;;;;6.25;5.95;;;;;;;18.83;100.00;101187.47;5995904;23;20108;-70
2022/07/29 09:47:07;;;;;;;5.97;5.57;;;;;;;18.90;100.00;101194.00;6020007;23;20023;-70
2022/07/29 09:49:35;;;;;;;7.68;7.18;;;;;;;19.08;100.00;101189.88;5990045;23;20027;-71
2022/07/29 09:52:08;;;;;;;5.78;5.50;;;;;;;19.14;100.00;101180.53;6024855;23;20023;-71
2022/07/29 09:54:39;;;;;;;6.97;6.57;;;;;;;19.29;100.00;101142.03;5989777;23;20456;-71
2022/07/29 09:57:22;;;;;;;5.78;5.47;;;;;;;19.68;100.00;101179.63;6023326;23;20082;-71
2022/07/29 09:59:56;;;;;;;6.40;6.00;;;;;;;19.81;96.79;101166.19;5994406;23;20050;-70
2022/07/29 10:02:27;;;;;;;6.00;5.70;;;;;;;19.98;95.00;101170.09;5989869;23;20031;-70
2022/07/29 10:04:54;;;;;;;5.75;5.45;;;;;;;20.09;92.13;101170.03;5995771;23;20306;-70
2022/07/29 10:07:21;;;;;;;5.65;5.38;;;;;;;20.13;91.11;101163.47;5984932;23;20254;-71
2022/07/29 10:09:55;;;;;;;6.07;5.78;;;;;;;20.16;89.49;101172.19;6022386;23;20027;-71
2022/07/29 10:12:22;;;;;;;6.05;5.75;;;;;;;20.34;89.48;101167.94;5998129;23;20059;-71
2022/07/29 10:14:50;;;;;;;5.80;5.53;;;;;;;20.14;89.18;101148.31;6020267;23;20031;-71
2022/07/29 10:17:17;;;;;;;6.13;5.82;;;;;;;20.18;89.53;101128.41;5974571;23;20023;-71
2022/07/29 10:19:44;;;;;;;5.97;5.68;;;;;;;20.62;88.11;101171.75;6016103;23;20011;-71
2022/07/29 10:22:11;;;;;;;6.20;5.90;;;;;;;20.70;86.50;101169.25;5991273;23;20261;-70
2022/07/29 10:24:38;;;;;;;7.60;7.00;;;;;;;20.75;86.42;101166.19;5993676;23;20026;-71
2022/07/29 10:27:07;;;;;;;5.88;5.57;;;;;;;20.79;83.97;101172.09;6013038;23;20034;-71
2022/07/29 10:29:35;;;;;;;6.93;6.63;;;;;;;20.74;84.81;101171.66;5979829;23;20164;-71
2022/07/29 10:32:16;;;;;;;6.20;5.80;;;;;;;20.80;83.80;101169.28;6023469;23;20023;-71
2022/07/29 10:34:49;;;;;;;5.60;5.40;;;;;;;20.65;82.95;101166.16;5992032;23;20031;-71
2022/07/29 10:37:27;;;;;;;5.90;5.60;;;;;;;20.65;83.78;101178.66;6022983;23;20023;-71
2022/07/29 10:41:26;;;;;;;5.72;5.43;;;;;;;20.55;82.07;101180.38;5993095;23;20011;-71
2022/07/29 10:42:55;;;;;;;5.57;5.38;;;;;;;20.71;82.30;101181.63;6015904;23;20022;-71
2022/07/29 10:45:23;;;;;;;5.95;5.65;;;;;;;20.77;82.29;101172.25;5993596;23;20020;-71
2022/07/29 10:48:02;;;;;;;5.70;5.40;;;;;;;20.97;81.40;101170.47;5989780;23;20237;-71
2022/07/29 10:50:59;;;;;;;8.30;7.85;;;;;;;21.28;78.64;101163.22;6012114;23;20438;-71
2022/07/29 10:53:50;;;;;;;7.05;6.65;;;;;;;21.55;77.28;101159.09;5970431;23;20007;-71
2022/07/29 10:56:27;;;;;;;6.18;5.78;;;;;;;21.76;73.69;101156.25;5994587;23;20081;-72
2022/07/29 10:59:25;;;;;;;5.80;5.50;;;;;;;22.15;72.07;101145.50;5987109;23;20033;-71
2022/07/29 11:02:01;;;;;;;5.60;5.30;;;;;;;22.69;71.22;101114.50;5988363;23;20043;-71
2022/07/29 11:04:50;;;;;;;5.78;5.47;;;;;;;22.91;68.65;101139.16;6023174;23;20293;-71
2022/07/29 11:07:17;;;;;;;5.85;5.55;;;;;;;23.60;67.69;101132.34;5987739;23;20034;-71
2022/07/29 11:09:45;;;;;;;6.85;6.55;;;;;;;23.87;59.75;101123.38;6004981;23;20261;-72
2022/07/29 11:12:36;;;;;;;6.15;5.85;;;;;;;23.70;60.86;101133.09;5989380;23;20042;-72
2022/07/29 11:15:07;;;;;;;5.70;5.40;;;;;;;23.45;58.83;101140.09;6012743;23;20031;-72
2022/07/29 11:17:57;;;;;;;6.80;6.50;;;;;;;23.28;58.16;101155.16;5983799;23;20086;-73
2022/07/29 11:20:44;;;;;;;6.72;6.43;;;;;;;22.80;56.23;101158.09;6001261;23;20061;-71
2022/07/29 11:23:39;;;;;;;5.65;5.40;;;;;;;22.72;57.96;101129.41;5983303;23;20027;-71
2022/07/29 11:26:12;;;;;;;5.70;5.40;;;;;;;23.32;56.13;101157.53;5961983;23;20091;-71
2022/07/29 11:29:17;;;;;;;6.70;6.40;;;;;;;23.80;55.28;101149.13;5993813;23;20034;-70
2022/07/29 11:31:48;;;;;;;6.65;6.35;;;;;;;23.85;52.17;101162.03;5983961;23;20051;-70
2022/07/29 11:34:31;;;;;;;5.72;5.43;;;;;;;22.25;55.05;100993.97;6017727;23;20038;-70
2022/07/29 11:37:09;;;;;;;5.70;5.50;;;;;;;23.81;53.27;101155.31;5998233;23;20461;-70
2022/07/29 11:39:40;;;;;;;6.93;6.55;;;;;;;24.08;53.59;101147.16;5996827;23;20031;-70
2022/07/29 11:42:25;;;;;;;5.78;5.47;;;;;;;24.03;52.56;101153.97;5992796;23;20011;-68
2022/07/29 11:45:05;;;;;;;5.60;5.40;;;;;;;23.83;51.07;101174.75;6005881;23;20161;-69
2022/07/29 11:47:54;;;;;;;6.00;5.70;;;;;;;23.62;50.54;101183.94;5991324;23;20031;-70